Time;durP1;ratioP1;P1;durP2;ratioP2;P2;SDS_P1;SDS_P2;PMS_P1;PMS_P2;Temp;Humidity;BMP_temperature;BMP_pressure;BME280_temperature;BME280_humidity;BME280_pressure;Samples;Min_cycle;Max_cycle;Signal;HPM_P1;HPM_P2
2021/05/04 00:01:11;;;;;;;1.95;0.50;;;;;;;9.51;48.55;98110.06;5042970;28;20033;-57
2021/05/04 00:03:37;;;;;;;1.08;0.50;;;;;;;9.40;49.59;98107.94;5043463;28;20337;-57
2021/05/04 00:06:03;;;;;;;0.40;0.40;;;;;;;9.26;49.83;98097.34;5062924;28;20056;-57
2021/05/04 00:08:29;;;;;;;0.52;0.50;;;;;;;9.46;50.31;98105.13;5062933;28;20033;-57
2021/05/04 00:10:55;;;;;;;1.67;0.60;;;;;;;9.39;49.76;98095.94;5062807;28;20039;-57
2021/05/04 00:13:21;;;;;;;2.15;0.80;;;;;;;9.31;50.32;98092.84;5062427;28;20066;-58
2021/05/04 00:15:46;;;;;;;0.63;0.63;;;;;;;9.39;50.34;98090.78;5043013;28;20250;-58
2021/05/04 00:18:12;;;;;;;1.85;0.70;;;;;;;9.27;50.92;98086.13;5042713;28;20053;-57
2021/05/04 00:20:39;;;;;;;2.15;0.70;;;;;;;9.06;50.95;98018.97;5042658;28;20021;-57
2021/05/04 00:23:04;;;;;;;0.73;0.70;;;;;;;9.63;50.64;98085.44;5042895;28;20033;-57
2021/05/04 00:25:30;;;;;;;1.08;0.82;;;;;;;9.56;50.13;98079.69;5058412;28;20036;-57
2021/05/04 00:28:10;;;;;;;0.57;0.57;;;;;;;9.55;50.58;98080.63;5062552;28;20053;-57
2021/05/04 00:30:36;;;;;;;0.70;0.63;;;;;;;9.26;51.12;98066.34;5062504;28;20075;-56
2021/05/04 00:33:02;;;;;;;0.60;0.60;;;;;;;9.38;51.30;98071.00;5062566;28;20044;-57
2021/05/04 00:35:28;;;;;;;3.88;0.98;;;;;;;9.46;51.27;98068.94;5046901;28;20316;-57
2021/05/04 00:37:53;;;;;;;2.10;0.70;;;;;;;9.45;50.66;98069.84;5042097;28;20124;-57
2021/05/04 00:40:19;;;;;;;0.77;0.60;;;;;;;9.18;50.76;98076.16;5042612;28;20206;-57
2021/05/04 00:42:45;;;;;;;1.13;0.85;;;;;;;9.23;51.79;98056.97;5042657;28;20029;-57
2021/05/04 00:45:11;;;;;;;0.50;0.50;;;;;;;9.24;52.67;98065.59;5055076;28;20028;-57
2021/05/04 00:47:37;;;;;;;0.60;0.60;;;;;;;9.08;50.80;98066.22;5062391;28;20033;-56
2021/05/04 00:50:04;;;;;;;4.22;0.80;;;;;;;9.04;50.48;98064.69;5062547;28;20364;-58
2021/05/04 00:52:30;;;;;;;0.88;0.88;;;;;;;9.25;51.01;98062.09;5061202;28;20056;-58
2021/05/04 00:54:57;;;;;;;4.13;0.80;;;;;;;9.21;50.82;98068.31;5051780;28;20199;-57
2021/05/04 00:57:23;;;;;;;2.20;0.73;;;;;;;9.25;50.68;98069.84;5042329;28;20056;-57
2021/05/04 00:59:50;;;;;;;0.60;0.50;;;;;;;9.34;49.92;98059.13;5042334;28;20037;-57
2021/05/04 01:02:17;;;;;;;0.57;0.57;;;;;;;8.98;50.70;98052.84;5042150;28;20033;-57
2021/05/04 01:04:45;;;;;;;0.75;0.52;;;;;;;8.55;51.04;98000.44;5050589;28;20078;-58
2021/05/04 01:07:10;;;;;;;1.23;0.57;;;;;;;9.00;50.36;98051.97;5062092;28;20033;-57
2021/05/04 01:09:36;;;;;;;0.70;0.70;;;;;;;8.98;50.79;98045.13;5062373;28;20021;-57
2021/05/04 01:12:02;;;;;;;0.75;0.57;;;;;;;9.07;50.52;98035.31;5062052;28;20025;-57
2021/05/04 01:14:28;;;;;;;0.50;0.50;;;;;;;8.90;50.22;98025.69;5055532;28;20048;-57
2021/05/04 01:16:55;;;;;;;0.60;0.60;;;;;;;9.00;49.85;98032.13;5042022;28;20029;-58
2021/05/04 01:19:22;;;;;;;1.65;0.55;;;;;;;8.39;49.65;97964.03;5042132;28;20024;-58
2021/05/04 01:21:49;;;;;;;0.93;0.70;;;;;;;8.92;51.14;98013.53;5042084;28;20036;-58
2021/05/04 01:24:16;;;;;;;1.70;0.60;;;;;;;8.65;50.71;98016.38;5046228;28;20253;-58
2021/05/04 01:26:43;;;;;;;1.75;0.50;;;;;;;8.94;51.06;98016.91;5062119;28;20028;-58
2021/05/04 01:29:09;;;;;;;0.50;0.50;;;;;;;8.90;51.53;98020.53;5061885;28;20359;-58
2021/05/04 01:31:35;;;;;;;0.43;0.43;;;;;;;8.97;50.32;98015.03;5061796;28;20048;-59
2021/05/04 01:34:01;;;;;;;0.52;0.50;;;;;;;8.70;51.71;98011.03;5059777;28;20322;-59
2021/05/04 01:36:27;;;;;;;0.55;0.55;;;;;;;8.63;50.11;98015.59;5040758;28;20030;-58
2021/05/04 01:38:53;;;;;;;1.05;0.45;;;;;;;8.43;50.61;98009.44;5041924;28;20030;-57
2021/05/04 01:41:19;;;;;;;0.50;0.40;;;;;;;8.70;51.37;98008.44;5041923;28;20026;-57
2021/05/04 01:43:44;;;;;;;0.55;0.55;;;;;;;8.70;51.29;98011.84;5041925;28;20364;-58
2021/05/04 01:46:10;;;;;;;0.50;0.50;;;;;;;8.63;51.26;98010.44;5061316;28;20111;-57
2021/05/04 01:48:36;;;;;;;0.50;0.50;;;;;;;8.78;50.14;98007.22;5061898;28;20025;-58
2021/05/04 01:51:02;;;;;;;2.10;0.50;;;;;;;8.83;48.99;98016.53;5064317;28;20021;-57
2021/05/04 01:53:28;;;;;;;1.02;0.50;;;;;;;8.58;51.45;98014.91;5065260;28;20344;-57
2021/05/04 01:55:54;;;;;;;0.43;0.40;;;;;;;8.42;49.81;97996.63;5048218;28;20021;-58
2021/05/04 01:58:19;;;;;;;1.85;0.57;;;;;;;8.39;50.60;98005.31;5045321;28;20036;-58
2021/05/04 02:00:45;;;;;;;0.55;0.55;;;;;;;8.56;49.65;98011.56;5045177;28;20022;-58
2021/05/04 02:03:11;;;;;;;0.65;0.50;;;;;;;8.25;51.67;98010.19;5045106;28;20025;-58
2021/05/04 02:05:37;;;;;;;0.80;0.60;;;;;;;8.54;50.67;98000.50;5059492;28;20029;-58
2021/05/04 02:08:03;;;;;;;1.13;0.50;;;;;;;8.57;50.87;98003.78;5065018;28;20037;-58
2021/05/04 02:10:29;;;;;;;0.57;0.57;;;;;;;8.53;52.00;97988.50;5064981;28;20025;-57
2021/05/04 02:12:55;;;;;;;0.98;0.73;;;;;;;8.75;51.16;98001.34;5064667;28;20219;-58
2021/05/04 02:15:21;;;;;;;1.95;0.85;;;;;;;8.75;49.85;97991.88;5052706;28;20055;-57
2021/05/04 02:17:46;;;;;;;1.42;0.55;;;;;;;8.86;51.50;97999.16;5045043;28;20333;-58
2021/05/04 02:20:12;;;;;;;2.13;0.60;;;;;;;8.51;50.37;97993.72;5044955;28;20036;-58
2021/05/04 02:22:39;;;;;;;2.15;0.77;;;;;;;8.61;51.17;97989.84;5044872;28;20032;-58
2021/05/04 02:25:06;;;;;;;0.85;0.73;;;;;;;8.78;52.56;97980.59;5054253;28;20032;-58
2021/05/04 02:27:33;;;;;;;2.13;0.60;;;;;;;8.75;51.38;97985.84;5064703;28;20027;-58
2021/05/04 02:29:59;;;;;;;1.52;0.45;;;;;;;8.74;51.04;97974.69;5064560;28;20060;-58
2021/05/04 02:32:26;;;;;;;1.75;0.57;;;;;;;8.44;52.09;97979.34;5064599;28;20471;-58
2021/05/04 02:34:52;;;;;;;0.52;0.47;;;;;;;8.29;52.11;97980.78;5056846;28;20033;-57
2021/05/04 02:37:19;;;;;;;1.27;0.50;;;;;;;8.30;52.34;97987.63;5044552;28;20033;-57
2021/05/04 02:39:44;;;;;;;0.50;0.50;;;;;;;8.27;53.05;97974.88;5044636;28;20025;-57
2021/05/04 02:42:10;;;;;;;0.50;0.50;;;;;;;8.34;51.43;97983.19;5044384;28;20389;-57
2021/05/04 02:44:36;;;;;;;1.45;0.63;;;;;;;8.57;52.15;97971.97;5049408;28;20029;-57
2021/05/04 02:47:02;;;;;;;0.63;0.63;;;;;;;8.55;52.11;97984.09;5064268;28;20028;-57
2021/05/04 02:49:27;;;;;;;2.72;0.50;;;;;;;8.21;53.29;97975.09;5064411;28;20032;-58
2021/05/04 02:51:53;;;;;;;1.13;0.70;;;;;;;8.13;52.98;97958.19;5064294;28;20025;-58
2021/05/04 02:54:19;;;;;;;2.28;0.70;;;;;;;8.32;53.70;97975.50;5061500;28;20024;-56
2021/05/04 02:56:45;;;;;;;1.65;0.50;;;;;;;8.34;53.65;97985.75;5044194;28;20033;-58
2021/05/04 02:59:10;;;;;;;0.50;0.50;;;;;;;8.17;52.97;97978.72;5044003;28;20021;-58
2021/05/04 03:01:36;;;;;;;0.40;0.40;;;;;;;8.36;54.59;97983.97;5043602;28;20018;-58
2021/05/04 03:04:02;;;;;;;1.48;0.70;;;;;;;8.35;53.59;97983.16;5043978;28;20033;-58
2021/05/04 03:06:29;;;;;;;1.60;0.80;;;;;;;8.13;53.35;97978.81;5024303;28;20089;-58
2021/05/04 03:08:55;;;;;;;0.60;0.60;;;;;;;8.18;53.20;97978.66;5024170;28;20076;-58
2021/05/04 03:11:20;;;;;;;0.38;0.38;;;;;;;8.21;54.01;97986.25;5024099;28;20319;-59
2021/05/04 03:13:46;;;;;;;1.60;0.50;;;;;;;8.23;54.46;97983.63;5024071;28;20052;-58
2021/05/04 03:16:12;;;;;;;3.42;0.52;;;;;;;8.22;53.14;97980.22;5059167;28;20033;-58
2021/05/04 03:18:37;;;;;;;2.50;0.60;;;;;;;8.39;53.37;97982.09;5063648;28;20047;-58
2021/05/04 03:21:03;;;;;;;1.20;1.10;;;;;;;8.37;53.49;97975.34;5063711;28;20024;-57
2021/05/04 03:23:29;;;;;;;1.95;0.60;;;;;;;8.16;54.99;97975.28;5063767;28;20059;-58
2021/05/04 03:25:55;;;;;;;0.80;0.80;;;;;;;8.48;54.58;97975.78;5048476;28;20032;-58
2021/05/04 03:28:20;;;;;;;1.85;0.80;;;;;;;8.51;54.28;97979.94;5043298;28;20026;-58
2021/05/04 03:30:46;;;;;;;0.80;0.80;;;;;;;8.49;53.45;97963.72;5042344;28;20025;-58
2021/05/04 03:33:12;;;;;;;1.95;0.70;;;;;;;8.75;53.48;97975.53;5043366;28;20032;-58
2021/05/04 03:35:38;;;;;;;2.90;0.80;;;;;;;8.67;53.99;97968.13;5055722;28;20056;-58
2021/05/04 03:38:04;;;;;;;0.47;0.47;;;;;;;8.36;53.32;97984.81;5063354;28;20051;-57
2021/05/04 03:40:30;;;;;;;1.38;0.60;;;;;;;8.29;53.64;97952.41;5063380;28;20322;-58
2021/05/04 03:42:56;;;;;;;1.05;0.75;;;;;;;8.45;53.52;97958.69;5063094;28;20095;-58
2021/05/04 03:45:22;;;;;;;0.90;0.80;;;;;;;8.23;54.89;97970.72;5053233;28;20214;-57
2021/05/04 03:47:48;;;;;;;0.60;0.60;;;;;;;8.19;53.90;97970.00;5043192;28;20037;-58
2021/05/04 03:50:17;;;;;;;1.85;1.08;;;;;;;7.87;56.23;97917.97;5043066;28;20021;-58
2021/05/04 03:52:43;;;;;;;1.23;0.90;;;;;;;8.29;57.78;97970.47;5043016;28;20250;-58
2021/05/04 03:55:10;;;;;;;0.63;0.40;;;;;;;7.76;56.48;97985.38;5050700;28;20096;-58
2021/05/04 03:57:36;;;;;;;0.82;0.60;;;;;;;8.11;56.30;97983.22;5062784;28;20025;-58
2021/05/04 04:00:05;;;;;;;0.82;0.50;;;;;;;7.98;56.10;97968.25;5062819;28;20310;-58
2021/05/04 04:02:31;;;;;;;0.90;0.60;;;;;;;7.67;55.77;97980.59;5052341;28;20044;-58
2021/05/04 04:04:57;;;;;;;0.55;0.52;;;;;;;8.10;55.13;97984.09;5048723;28;20025;-58
2021/05/04 04:07:23;;;;;;;2.10;1.67;;;;;;;8.51;54.71;97975.66;5062739;28;20051;-58
2021/05/04 04:09:49;;;;;;;0.60;0.60;;;;;;;8.48;55.48;97962.88;5062608;28;20051;-58
2021/05/04 04:12:14;;;;;;;1.58;0.77;;;;;;;8.59;55.79;97963.28;5061722;28;20032;-58
2021/05/04 04:14:40;;;;;;;0.60;0.60;;;;;;;8.50;54.86;97960.25;5058986;28;20048;-58
2021/05/04 04:17:06;;;;;;;0.60;0.60;;;;;;;8.24;54.13;97956.94;5042580;28;20037;-58
2021/05/04 04:19:32;;;;;;;1.95;0.60;;;;;;;8.36;53.70;97948.69;5041506;28;20063;-57
2021/05/04 04:21:57;;;;;;;0.43;0.43;;;;;;;8.39;53.36;97943.41;5042736;28;20025;-58
2021/05/04 04:24:23;;;;;;;0.73;0.60;;;;;;;8.57;53.60;97948.75;5043419;28;20142;-58
2021/05/04 04:26:49;;;;;;;0.93;0.70;;;;;;;8.51;54.97;97951.56;5062496;28;20321;-59
2021/05/04 04:29:14;;;;;;;2.03;0.57;;;;;;;8.70;53.64;97947.34;5062325;28;20264;-59
2021/05/04 04:31:41;;;;;;;1.38;0.60;;;;;;;8.28;54.63;97924.97;5062393;28;20309;-59
2021/05/04 04:34:08;;;;;;;0.40;0.40;;;;;;;8.79;53.88;97931.47;5062362;28;20095;-59
2021/05/04 04:36:34;;;;;;;0.60;0.60;;;;;;;8.84;54.92;97935.59;5043682;28;20033;-59
2021/05/04 04:39:01;;;;;;;1.83;0.70;;;;;;;8.62;54.65;97936.50;5042202;28;20116;-59
2021/05/04 04:41:27;;;;;;;4.50;0.70;;;;;;;8.85;54.28;97929.50;5042236;28;20309;-58
2021/05/04 04:43:52;;;;;;;1.80;0.73;;;;;;;8.44;54.16;97938.09;5042569;28;20030;-58
2021/05/04 04:46:18;;;;;;;0.70;0.60;;;;;;;8.32;55.19;97941.16;5057468;28;20025;-57
2021/05/04 04:48:44;;;;;;;0.60;0.60;;;;;;;8.08;59.65;97938.63;5062260;28;20040;-58
2021/05/04 04:51:09;;;;;;;1.08;0.70;;;;;;;7.90;58.64;97940.22;5062238;28;20025;-58
2021/05/04 04:53:35;;;;;;;1.13;0.57;;;;;;;7.98;58.79;97933.03;5062236;28;20028;-58
2021/05/04 04:56:01;;;;;;;1.50;0.60;;;;;;;7.95;59.03;97938.28;5048247;28;20060;-58
2021/05/04 04:58:26;;;;;;;0.80;0.57;;;;;;;8.11;58.95;97926.47;5042561;28;20041;-58
2021/05/04 05:00:53;;;;;;;1.95;0.60;;;;;;;8.27;58.33;97918.97;5042249;28;20029;-59
2021/05/04 05:03:20;;;;;;;2.75;0.70;;;;;;;8.30;59.54;97938.63;5042047;28;20025;-58
2021/05/04 05:05:46;;;;;;;0.68;0.68;;;;;;;7.95;60.47;97948.59;5053414;28;20314;-58
2021/05/04 05:08:12;;;;;;;0.80;0.80;;;;;;;7.66;62.12;97952.31;5062086;28;20055;-58
2021/05/04 05:10:37;;;;;;;0.50;0.50;;;;;;;7.46;63.91;97965.94;5061888;28;20028;-58
2021/05/04 05:13:03;;;;;;;2.25;0.80;;;;;;;7.36;63.20;97955.97;5061977;28;20150;-58
2021/05/04 05:15:36;;;;;;;1.70;0.70;;;;;;;7.39;64.52;97961.00;5052926;28;20041;-57
2021/05/04 05:18:04;;;;;;;0.60;0.60;;;;;;;7.47;64.73;97963.31;5042131;28;20025;-58
2021/05/04 05:20:30;;;;;;;0.60;0.55;;;;;;;7.55;63.42;97955.28;5042102;28;20263;-57
2021/05/04 05:22:56;;;;;;;0.40;0.40;;;;;;;7.72;60.11;97945.16;5042109;28;20033;-58
2021/05/04 05:25:22;;;;;;;0.55;0.55;;;;;;;7.96;59.25;97939.97;5052407;28;20307;-61
2021/05/04 05:27:47;;;;;;;0.38;0.38;;;;;;;8.74;56.08;97943.72;5065460;28;20032;-58
2021/05/04 05:30:13;;;;;;;0.40;0.40;;;;;;;9.78;54.35;97932.25;5065550;28;20122;-58
2021/05/04 05:32:39;;;;;;;0.50;0.50;;;;;;;10.27;53.59;97923.06;5065760;28;20206;-59
2021/05/04 05:35:05;;;;;;;0.68;0.50;;;;;;;10.24;50.70;97908.50;5060434;28;20021;-59
2021/05/04 05:37:31;;;;;;;0.50;0.50;;;;;;;11.90;48.72;97917.19;5045679;28;20029;-59
2021/05/04 05:39:57;;;;;;;0.60;0.60;;;;;;;11.98;48.46;97914.19;5045613;28;20041;-59
2021/05/04 05:42:22;;;;;;;0.60;0.60;;;;;;;11.29;48.22;97917.94;5045499;28;20036;-59
2021/05/04 05:44:48;;;;;;;0.90;0.50;;;;;;;11.10;48.85;97916.31;5048136;28;20117;-59
2021/05/04 05:47:14;;;;;;;0.30;0.30;;;;;;;9.70;49.66;97916.25;5065411;28;20047;-58
2021/05/04 05:49:41;;;;;;;0.85;0.50;;;;;;;10.07;49.11;97904.16;5065430;28;20325;-58
2021/05/04 05:52:07;;;;;;;0.50;0.43;;;;;;;10.52;48.17;97902.84;5065079;28;20025;-58
2021/05/04 05:54:33;;;;;;;0.60;0.60;;;;;;;10.05;49.56;97903.41;5064514;28;20031;-58
2021/05/04 05:56:58;;;;;;;1.20;0.70;;;;;;;10.36;49.34;97901.91;5045083;28;20025;-58
2021/05/04 05:59:24;;;;;;;0.50;0.50;;;;;;;10.01;47.94;97884.59;5045153;28;20048;-59
2021/05/04 06:01:50;;;;;;;0.65;0.65;;;;;;;9.57;48.34;97913.41;5044997;28;20052;-57
2021/05/04 06:04:16;;;;;;;1.38;0.52;;;;;;;9.29;50.60;97904.34;5044986;28;20025;-60
2021/05/04 06:06:42;;;;;;;0.60;0.52;;;;;;;9.55;49.94;97906.63;5062571;28;20025;-60
2021/05/04 06:09:08;;;;;;;1.30;0.65;;;;;;;9.28;49.88;97909.56;5065025;28;20249;-58
2021/05/04 06:11:34;;;;;;;0.55;0.50;;;;;;;9.14;51.65;97908.44;5064893;28;20025;-59
2021/05/04 06:14:00;;;;;;;1.58;0.65;;;;;;;8.90;53.59;97912.09;5065033;28;20045;-60
2021/05/04 06:16:25;;;;;;;0.60;0.60;;;;;;;8.34;57.21;97922.13;5048425;28;20074;-58
2021/05/04 06:18:51;;;;;;;1.80;0.73;;;;;;;7.67;62.94;97954.81;5044962;28;20026;-58
2021/05/04 06:21:17;;;;;;;0.75;0.73;;;;;;;7.01;68.27;97960.66;5043495;28;20075;-58
2021/05/04 06:23:43;;;;;;;0.63;0.63;;;;;;;7.18;68.10;97961.78;5044776;28;20088;-62
2021/05/04 06:26:09;;;;;;;1.75;0.70;;;;;;;7.18;69.01;97954.03;5057203;28;20087;-59
2021/05/04 06:28:35;;;;;;;2.75;0.60;;;;;;;7.35;68.86;97949.13;5064585;28;20029;-59
2021/05/04 06:31:03;;;;;;;1.70;0.60;;;;;;;7.71;67.97;97930.63;5064418;28;20369;-60
2021/05/04 06:33:28;;;;;;;0.50;0.50;;;;;;;7.85;68.00;97940.41;5064306;28;20083;-59
2021/05/04 06:35:54;;;;;;;2.25;0.77;;;;;;;8.37;66.65;97945.22;5052883;28;20038;-58
2021/05/04 06:38:20;;;;;;;0.98;0.60;;;;;;;7.96;66.07;97939.97;5044523;28;20056;-58
2021/05/04 06:40:49;;;;;;;0.95;0.60;;;;;;;9.18;63.27;97934.09;5044186;28;20037;-58
2021/05/04 06:43:14;;;;;;;2.72;0.70;;;;;;;9.38;63.72;97935.81;5044326;28;20037;-59
2021/05/04 06:45:40;;;;;;;1.05;0.63;;;;;;;10.31;61.43;97922.00;5052670;28;20032;-59
2021/05/04 06:48:07;;;;;;;2.83;0.70;;;;;;;10.63;60.04;97935.97;5064396;28;20306;-59
2021/05/04 06:50:33;;;;;;;1.90;0.60;;;;;;;10.36;58.60;97920.03;5064397;28;20126;-57
2021/05/04 06:52:59;;;;;;;0.77;0.68;;;;;;;10.59;55.46;97924.09;5064102;28;20060;-59
2021/05/04 06:55:26;;;;;;;2.47;0.63;;;;;;;10.37;54.83;97929.47;5056705;28;20372;-58
2021/05/04 06:57:51;;;;;;;0.60;0.60;;;;;;;11.18;55.50;97927.09;5043963;28;20025;-59
2021/05/04 07:00:20;;;;;;;2.97;0.50;;;;;;;11.43;51.63;97923.22;5044067;28;20025;-58
2021/05/04 07:02:46;;;;;;;1.95;0.60;;;;;;;10.91;50.67;97919.00;5043809;28;20036;-58
2021/05/04 07:05:12;;;;;;;1.23;1.13;;;;;;;10.27;48.40;97908.34;5047484;28;20036;-59
2021/05/04 07:07:37;;;;;;;0.95;0.60;;;;;;;10.10;49.99;97909.19;5063797;28;20025;-58
2021/05/04 07:10:04;;;;;;;0.70;0.60;;;;;;;9.97;51.61;97911.50;5063608;28;20033;-59
2021/05/04 07:12:30;;;;;;;1.50;0.50;;;;;;;9.70;50.95;97900.75;5063284;28;20036;-59
2021/05/04 07:14:56;;;;;;;0.70;0.52;;;;;;;9.72;51.63;97906.69;5062257;28;20100;-58
2021/05/04 07:17:23;;;;;;;0.85;0.70;;;;;;;9.65;51.16;97905.31;5043570;28;20037;-60
2021/05/04 07:19:49;;;;;;;1.85;0.70;;;;;;;9.57;51.87;97935.81;5043677;28;20341;-58
2021/05/04 07:22:15;;;;;;;1.38;0.50;;;;;;;8.62;59.77;97957.13;5043347;28;20049;-59
2021/05/04 07:24:41;;;;;;;0.60;0.60;;;;;;;7.99;63.21;97964.78;5043616;28;20036;-58
2021/05/04 07:27:07;;;;;;;3.05;0.85;;;;;;;8.04;64.20;97978.34;5062759;28;20191;-58
2021/05/04 07:29:35;;;;;;;0.95;0.70;;;;;;;7.17;66.52;97980.69;5063547;28;20084;-59
2021/05/04 07:32:01;;;;;;;0.50;0.50;;;;;;;7.15;68.16;97979.91;5063493;28;20040;-57
2021/05/04 07:34:26;;;;;;;0.85;0.75;;;;;;;7.32;68.83;97980.13;5062120;28;20111;-58
2021/05/04 07:36:52;;;;;;;0.73;0.60;;;;;;;7.47;68.73;97983.03;5046236;28;20022;-59
2021/05/04 07:39:18;;;;;;;1.63;0.82;;;;;;;7.35;66.47;97984.34;5043359;28;20029;-59
2021/05/04 07:41:43;;;;;;;0.88;0.40;;;;;;;7.22;67.55;97982.19;5043402;28;20037;-58
2021/05/04 07:44:09;;;;;;;1.95;0.57;;;;;;;7.60;67.94;97979.97;5043225;28;20037;-58
2021/05/04 07:46:35;;;;;;;0.32;0.32;;;;;;;7.47;65.55;97973.59;5057342;28;20104;-59
2021/05/04 07:49:01;;;;;;;2.70;0.43;;;;;;;7.75;64.55;97981.16;5063037;28;20029;-58
2021/05/04 07:51:27;;;;;;;0.40;0.40;;;;;;;7.78;63.37;97978.44;5062921;28;20029;-58
2021/05/04 07:53:53;;;;;;;1.08;0.65;;;;;;;8.09;64.79;97982.44;5062394;28;20316;-58
2021/05/04 07:56:19;;;;;;;1.30;0.30;;;;;;;8.12;59.35;97972.00;5050634;28;20030;-59
2021/05/04 07:58:44;;;;;;;0.55;0.55;;;;;;;8.29;57.42;97978.22;5042703;28;20326;-59
2021/05/04 08:01:10;;;;;;;0.32;0.32;;;;;;;8.51;57.62;97967.06;5042945;28;20048;-59
2021/05/04 08:03:36;;;;;;;0.30;0.30;;;;;;;8.05;53.94;97962.84;5042794;28;20029;-58
2021/05/04 08:06:02;;;;;;;0.55;0.55;;;;;;;8.22;53.77;97956.16;5051928;28;20048;-58
2021/05/04 08:08:28;;;;;;;0.52;0.52;;;;;;;8.14;52.95;97969.34;5062612;28;20036;-58
2021/05/04 08:10:53;;;;;;;0.50;0.50;;;;;;;8.44;54.59;97969.91;5062835;28;20040;-58
2021/05/04 08:13:20;;;;;;;2.83;0.50;;;;;;;8.26;55.36;97979.16;5062612;28;20052;-59
2021/05/04 08:15:49;;;;;;;0.40;0.40;;;;;;;8.24;53.17;97970.66;5055483;28;20068;-58
2021/05/04 08:18:17;;;;;;;0.50;0.50;;;;;;;8.27;55.04;97982.59;5042634;28;20155;-58
2021/05/04 08:20:48;;;;;;;1.10;0.52;;;;;;;8.11;54.53;97983.22;5042560;28;20079;-58
2021/05/04 08:23:15;;;;;;;0.73;0.50;;;;;;;8.09;53.59;97979.84;5042403;28;20101;-59
2021/05/04 08:25:41;;;;;;;0.90;0.60;;;;;;;8.00;54.88;97977.63;5048390;28;20311;-59
2021/05/04 08:28:07;;;;;;;1.20;0.40;;;;;;;8.29;54.97;97980.78;5062314;28;20040;-58
2021/05/04 08:30:33;;;;;;;0.68;0.68;;;;;;;8.29;54.48;97991.09;5062441;28;20036;-58
2021/05/04 08:32:59;;;;;;;0.50;0.50;;;;;;;7.81;56.29;98008.44;5062706;28;20025;-59
2021/05/04 08:35:26;;;;;;;0.50;0.50;;;;;;;7.60;56.20;98002.31;5058718;28;20025;-59
2021/05/04 08:37:54;;;;;;;1.02;0.40;;;;;;;7.99;56.95;98008.63;5042447;28;20021;-58
2021/05/04 08:40:20;;;;;;;0.40;0.40;;;;;;;8.01;57.03;98001.66;5042640;28;20029;-58
2021/05/04 08:42:46;;;;;;;0.30;0.30;;;;;;;7.88;58.34;98012.44;5042529;28;20040;-58
2021/05/04 08:45:14;;;;;;;0.73;0.28;;;;;;;8.07;56.27;98020.31;5043836;28;20078;-58
2021/05/04 08:47:42;;;;;;;2.55;0.50;;;;;;;7.83;55.94;98019.50;5062346;28;20478;-58
2021/05/04 08:50:10;;;;;;;1.00;0.40;;;;;;;7.95;55.88;98010.47;5062251;28;20032;-58
2021/05/04 08:52:36;;;;;;;0.65;0.43;;;;;;;8.01;54.27;98002.50;5062095;28;20032;-58
2021/05/04 08:55:02;;;;;;;0.85;0.50;;;;;;;7.82;53.77;97998.94;5062088;28;20024;-59
2021/05/04 08:57:28;;;;;;;1.00;0.60;;;;;;;8.12;54.99;98018.41;5022465;28;20378;-59
2021/05/04 08:59:55;;;;;;;4.03;0.60;;;;;;;8.10;53.43;98016.78;5024508;28;20034;-59
2021/05/04 09:02:22;;;;;;;0.30;0.30;;;;;;;8.07;53.13;98025.47;5035314;28;20048;-58
2021/05/04 09:04:54;;;;;;;0.52;0.45;;;;;;;7.98;53.09;98020.69;5045945;28;20263;-58
2021/05/04 09:07:29;;;;;;;0.80;0.50;;;;;;;8.50;53.35;98022.97;5064669;28;20025;-58
2021/05/04 09:10:02;;;;;;;0.60;0.50;;;;;;;8.64;53.44;98017.28;5065896;28;20098;-58
2021/05/04 09:12:44;;;;;;;0.40;0.40;;;;;;;8.50;53.82;98029.91;5065872;28;20036;-59
2021/05/04 09:21:11;;;;;;;0.65;0.65;;;;;;;8.48;56.91;98039.41;5045739;28;20028;-58
2021/05/04 09:23:42;;;;;;;3.70;1.00;;;;;;;8.33;60.24;98051.16;5045717;28;20045;-58
2021/05/04 09:26:32;;;;;;;1.17;0.90;;;;;;;8.03;64.43;98072.88;5053743;28;20348;-59
2021/05/04 09:28:59;;;;;;;1.35;1.05;;;;;;;7.75;65.57;98073.91;5065654;28;20032;-59
2021/05/04 09:31:27;;;;;;;1.83;1.00;;;;;;;7.69;65.92;98061.22;5065704;28;20035;-58
2021/05/04 09:33:53;;;;;;;1.38;0.80;;;;;;;7.54;65.87;98066.94;5065498;28;20209;-58
2021/05/04 09:36:41;;;;;;;1.02;0.85;;;;;;;7.89;65.91;98062.25;5055417;28;20040;-58
2021/05/04 09:39:09;;;;;;;1.65;1.15;;;;;;;7.54;65.44;98005.09;5045366;28;20419;-58
2021/05/04 09:41:35;;;;;;;2.30;1.58;;;;;;;8.00;65.46;98052.38;5045293;28;20033;-59
2021/05/04 09:44:01;;;;;;;2.25;1.15;;;;;;;8.18;64.45;98073.19;5045165;28;20315;-60
2021/05/04 09:46:47;;;;;;;2.22;0.95;;;;;;;7.98;63.91;98019.81;5055507;28;20071;-59
2021/05/04 09:49:36;;;;;;;1.08;0.90;;;;;;;8.47;61.92;98056.66;5065020;28;20213;-59
2021/05/04 09:53:05;;;;;;;0.68;0.68;;;;;;;8.06;61.09;98065.03;5065232;28;20055;-58
2021/05/04 09:55:12;;;;;;;0.63;0.60;;;;;;;8.33;61.60;98067.47;5064282;28;20036;-59
2021/05/04 09:57:46;;;;;;;1.15;0.70;;;;;;;8.14;58.40;98000.31;5045138;28;20352;-59
2021/05/04 10:00:15;;;;;;;1.33;0.80;;;;;;;8.57;57.04;98059.72;5044820;28;20033;-59
2021/05/04 10:02:42;;;;;;;1.65;0.80;;;;;;;8.84;58.29;98059.50;5044958;28;20101;-59
2021/05/04 10:05:13;;;;;;;1.75;0.75;;;;;;;8.41;58.06;98013.84;5045027;28;20286;-58
2021/05/04 10:07:40;;;;;;;0.70;0.70;;;;;;;8.46;60.22;98084.19;5064787;28;20029;-59
2021/05/04 10:10:08;;;;;;;2.40;0.80;;;;;;;7.43;63.58;98057.03;5064255;28;20376;-59
2021/05/04 10:12:36;;;;;;;0.85;0.70;;;;;;;7.41;64.90;98066.53;5064055;28;20100;-59
2021/05/04 10:15:06;;;;;;;0.70;0.60;;;;;;;7.59;64.26;98116.56;5064761;28;20033;-58
2021/05/04 10:17:36;;;;;;;0.73;0.60;;;;;;;7.54;64.86;98119.31;5045991;28;20097;-59
2021/05/04 10:20:05;;;;;;;1.38;0.80;;;;;;;7.19;67.13;98149.66;5044775;28;20025;-58
2021/05/04 10:22:31;;;;;;;0.98;0.70;;;;;;;6.71;69.62;98140.88;5044722;28;20056;-58
2021/05/04 10:24:58;;;;;;;0.82;0.50;;;;;;;6.12;69.79;98074.94;5044668;28;20033;-58
2021/05/04 10:27:24;;;;;;;0.60;0.57;;;;;;;6.47;70.29;98133.91;5061747;28;20025;-59
2021/05/04 10:29:52;;;;;;;2.00;0.77;;;;;;;6.66;69.58;98132.47;5064433;28;20334;-58
2021/05/04 10:32:49;;;;;;;0.38;0.38;;;;;;;6.72;69.79;98121.97;5064495;28;20025;-59
2021/05/04 10:35:30;;;;;;;1.33;0.50;;;;;;;6.97;67.92;98121.22;5064308;28;20044;-59
2021/05/04 10:37:58;;;;;;;0.75;0.50;;;;;;;7.34;68.23;98120.00;5024561;28;20045;-59
2021/05/04 10:40:33;;;;;;;0.57;0.55;;;;;;;7.71;66.77;98120.44;5024727;28;20030;-58
2021/05/04 10:43:22;;;;;;;1.75;0.70;;;;;;;7.97;67.02;98116.94;5024507;28;20052;-59
2021/05/04 10:45:57;;;;;;;1.08;0.90;;;;;;;7.63;65.55;98115.56;5031743;28;20340;-57
2021/05/04 10:48:40;;;;;;;1.05;0.90;;;;;;;7.42;65.01;98119.72;5064292;28;20572;-58
2021/05/04 10:51:17;;;;;;;1.23;1.10;;;;;;;7.66;64.02;98122.34;5064083;28;20024;-59
2021/05/04 10:53:49;;;;;;;1.77;0.90;;;;;;;7.75;65.05;98124.59;5064061;28;20322;-58
2021/05/04 10:56:16;;;;;;;0.80;0.80;;;;;;;7.49;65.39;98117.78;5056679;28;20033;-59
2021/05/04 10:58:49;;;;;;;1.38;0.90;;;;;;;7.36;66.56;98058.97;5043989;28;20037;-59
2021/05/04 11:01:18;;;;;;;0.93;0.80;;;;;;;7.93;63.28;98125.69;5043979;28;20025;-58
2021/05/04 11:03:45;;;;;;;1.77;0.98;;;;;;;8.08;65.25;98125.13;5043917;28;20277;-59
2021/05/04 11:06:13;;;;;;;3.13;1.10;;;;;;;7.38;64.36;98072.66;5049875;28;20033;-58
2021/05/04 11:08:42;;;;;;;0.85;0.85;;;;;;;7.75;64.64;98133.19;5063838;28;20079;-58
2021/05/04 11:11:30;;;;;;;0.60;0.60;;;;;;;7.28;64.96;98156.22;5063674;28;20088;-58
2021/05/04 11:14:03;;;;;;;1.27;0.43;;;;;;;7.00;64.62;98146.84;5063550;28;20037;-58
2021/05/04 11:16:41;;;;;;;0.90;0.70;;;;;;;7.28;64.67;98158.81;5054958;28;20033;-58
2021/05/04 11:19:11;;;;;;;1.63;0.45;;;;;;;6.92;65.74;98156.53;5043862;28;20105;-59
2021/05/04 11:21:38;;;;;;;1.27;0.50;;;;;;;7.44;67.58;98148.84;5043330;28;20314;-59
2021/05/04 11:24:10;;;;;;;0.90;0.60;;;;;;;7.32;67.53;98083.13;5043605;28;20048;-58
2021/05/04 11:26:56;;;;;;;1.10;0.60;;;;;;;7.26;66.18;98145.16;5052736;28;20082;-59
2021/05/04 11:29:38;;;;;;;0.70;0.70;;;;;;;7.23;66.30;98145.25;5063475;28;20075;-58
2021/05/04 11:32:20;;;;;;;0.70;0.70;;;;;;;7.45;65.54;98155.66;5063233;28;20075;-58
2021/05/04 11:34:53;;;;;;;1.75;0.63;;;;;;;7.16;66.42;98106.00;5063063;28;20033;-58
2021/05/04 11:37:19;;;;;;;2.88;1.00;;;;;;;6.99;69.37;98175.19;5048225;28;20034;-58
2021/05/04 11:39:57;;;;;;;0.80;0.80;;;;;;;7.25;67.37;98166.63;5043341;28;20048;-58
2021/05/04 11:42:25;;;;;;;3.35;0.93;;;;;;;7.53;67.31;98171.72;5043318;28;20057;-58
2021/05/04 11:44:52;;;;;;;1.65;0.55;;;;;;;7.31;61.80;98165.59;5043291;28;20045;-58
2021/05/04 11:47:25;;;;;;;0.50;0.50;;;;;;;6.78;64.71;98096.94;5089855;28;20072;-58
2021/05/04 11:50:21;;;;;;;1.05;0.52;;;;;;;7.36;63.14;98168.88;5063018;28;20021;-58